Daily Summary

Last 30 Days

Daily Data | Pacific/Honolulu
as of 11/27/20 1:50 PM HST
Date Daily Max Temp (°F) Time of Max Temp Daily Min Temp (°F) Time of Min Temp Daily Rain (In) Seasonal Rainfall (In) Wind Spd (mph) Daily Max Wind (mph) Time of Max Wind Max Wind Dir (°) Daily Solar Rad (Cal/cm2) Daily ETo (in) Dew Pt (°F) Max RH (%) Min RH (%) Max Press (inHg) Time of Max Press Min Press (inHg) Time of Min Press Bat Volt Min Day (V)
11/26/20 80.7 0923 75.1 2339 0.00 17.11 7.1 25.2 2229 ENE | 77 370 0.146 67.0 83 62 30.14 0906 30.03 1434 12.7
11/25/20 82.6 1403 76.0 0455 0.00 17.11 8.1 24.3 1342 NNE | 18 431 0.166 68.8 81 62 30.13 0956 30.00 1534 12.8
11/24/20 81.2 1337 72.8 1648 0.51 17.11 9.0 30.5 1236 NE | 43 380 0.140 69.7 89 63 30.11 2217 29.96 1440 12.8
11/23/20 82.1 1409 74.9 0418 0.07 16.60 10.1 32.8 1234 NNE | 29 409 0.161 68.9 86 57 30.11 0001 29.98 1538 12.8
11/22/20 80.4 1256 74.8 2353 0.06 16.53 11.5 34.3 0839 NNE | 31 278 0.130 68.8 85 63 30.14 0859 30.02 1643 12.7
11/21/20 82.1 1449 75.0 0522 0.16 16.47 10.8 32.7 1720 NNE | 33 395 0.157 69.8 88 63 30.13 2238 29.99 1502 12.8
11/20/20 82.1 1212 75.4 0535 0.00 16.31 7.6 29.4 1437 NE | 48 361 0.142 69.0 87 61 30.10 2131 29.99 1357 12.8
11/19/20 81.5 1253 76.7 0950 0.00 16.31 7.2 22.1 0326 ENE | 67 303 0.134 67.1 79 61 30.11 0949 29.99 1427 12.8
11/18/20 82.3 1440 74.2 0633 0.05 16.31 5.1 25.6 1523 NNE | 29 347 0.124 70.4 91 62 30.12 2140 30.00 1509 12.7
11/17/20 83.7 1140 76.4 0611 0.00 16.26 6.4 21.1 1211 NNE | 25 430 0.162 68.9 79 60 30.10 0909 29.98 1417 12.7
11/16/20 84.3 1116 75.1 0645 0.02 16.26 5.1 20.4 1455 NNE | 25 438 0.156 68.4 84 59 30.11 0006 29.99 1610 12.7
11/15/20 83.0 1144 73.4 0534 0.00 16.24 5.0 22.1 1516 NE | 36 402 0.148 68.1 84 60 30.15 1017 30.02 1559 12.7
11/14/20 83.8 1126 76.2 2320 0.00 16.24 6.5 19.3 0631 ENE | 64 404 0.164 66.7 74 55 30.18 0927 30.04 1504 12.7
11/13/20 82.6 1328 74.4 0426 0.04 16.24 8.5 29.3 1445 NE | 46 452 0.177 67.8 84 57 30.18 0948 30.07 1521 12.8
11/12/20 82.6 1104 75.4 2232 0.01 16.20 9.5 30.3 1732 NNE | 26 464 0.190 66.8 82 57 30.21 0859 30.08 1547 12.8
11/11/20 83.2 1229 74.0 0745 0.06 16.19 9.4 35.0 1731 NE | 39 436 0.179 67.7 84 56 30.21 1014 30.07 1645 12.8
11/10/20 84.3 1143 77.6 2048 0.00 16.13 9.9 30.3 1544 NNE | 21 483 0.202 68.0 76 58 30.19 2242 30.05 1512 12.8
11/9/20 83.8 1427 77.9 2337 0.00 16.13 7.3 23.2 2330 NE | 40 325 0.139 69.8 83 63 30.13 2259 29.97 0522 12.8
11/8/20 84.6 1344 75.8 2234 0.00 16.13 7.4 24.6 2223 ENE | 78 459 0.186 68.1 82 56 30.06 0954 29.96 1412 12.8
11/7/20 84.6 1315 76.2 0536 0.00 16.13 5.9 20.2 1533 NE | 49 418 0.156 70.8 85 60 30.05 2307 29.94 1407 12.8
11/6/20 84.2 1159 75.2 0226 0.00 16.13 5.8 20.0 2212 NE | 39 341 0.138 69.9 86 63 30.07 0830 29.97 1549 12.7
11/5/20 86.8 1159 73.6 0654 0.00 16.13 3.1 11.0 1629 NNE | 22 437 0.149 71.1 90 57 30.07 0946 29.96 0319 12.7
11/4/20 87.2 1212 76.4 2334 0.04 16.13 3.6 16.2 0239 ENE | 58 429 0.151 72.0 91 58 30.10 0004 29.93 1650 12.8
11/3/20 84.6 1223 76.2 0316 0.00 16.09 5.3 21.5 1233 NNE | 25 418 0.146 72.2 83 68 30.11 2249 30.00 1406 12.7
11/2/20 85.6 1227 71.2 0050 0.00 16.09 4.1 19.0 1058 NE | 56 460 0.165 68.5 84 55 30.12 2216 30.01 0429 12.7
11/1/20 83.8 1403 69.6 0504 0.00 16.09 3.3 12.9 1539 NE | 45 269 0.102 67.2 86 61 30.09 2250 29.95 0355 12.7
10/31/20 84.6 1044 70.8 0644 0.00 16.09 2.9 13.0 1544 NNE | 24 298 0.103 68.6 88 61 30.01 2306 29.88 0435 12.7
10/30/20 84.2 1339 71.5 0617 0.00 16.09 4.4 19.0 1505 SW | 218 494 0.175 67.4 82 55 29.97 2307 29.83 1431 12.7
10/29/20 82.9 1408 72.3 0626 0.00 16.09 3.7 15.6 1521 SW | 224 347 0.126 67.4 90 53 29.93 0008 29.83 1504 12.7
10/28/20 85.1 1255 71.7 0447 0.00 16.09 3.8 13.6 1259 SSW | 195 427 0.143 70.9 94 64 29.99 0002 29.84 1446 12.7
Max 87.2 - 77.9 - 0.51 - 11.5 35.0 - - 494 0.202 72.2 94 68 30.21 - 30.08 - 12.8
Avg - - - - - - 6.6 - - - - - 68.9 - - - - - - -
Min 80.4 - 69.6 - 0.00 - 2.9 11.0 - - 269 0.102 66.7 74 53 29.93 - 29.83 - 12.7